Central Oregon RPC :: GERLACH, NV B2

liberation: 2020-06-14  06:30     latitude: 40.654500     longitude: -119.350399 22 birds
# LOFT PRING MILES ARRIVAL SPEED ToWin
1 RUETER FAMILY LOFT AU17-CORP-0419 295.169 2020-06-14 12:28:14.540 1450.131 00:00:00
2 RUETER FAMILY LOFT AU19-CORP-5456 295.169 2020-06-14 12:31:38.189 1436.520 00:03:24
3 RUETER FAMILY LOFT AU19-CORP-5250 295.169 2020-06-14 12:31:58.631 1435.168 00:03:44
4 RUETER FAMILY LOFT AU19-CORP-5393 295.169 2020-06-14 12:35:14.266 1422.356 00:07:00
5 RUETER FAMILY LOFT AU19-CORP-5291 295.169 2020-06-14 12:38:22.921 1410.216 00:10:08
6 RUETER FAMILY LOFT AU17-CORP-0498 295.169 2020-06-14 12:54:11.227 1352.201 00:25:57
7 RUETER FAMILY LOFT AU19-CORP-5435 295.169 2020-06-14 13:09:52.647 1299.144 00:41:38
8 RUETER FAMILY LOFT AU17-CORP-0521 295.169 2020-06-14 13:22:33.479 1259.213 00:54:19
9 RUETER FAMILY LOFT AU19-CORP-5377 295.169 2020-06-14 13:52:53.350 1172.976 01:24:39
10 RUETER FAMILY LOFT AU19-CORP-5317 295.169 2020-06-14 13:53:20.354 1171.785 01:25:06
11 RUETER FAMILY LOFT AU18-CORP-2643 295.169 2020-06-14 13:53:54.469 1170.284 01:25:40
12 RUETER FAMILY LOFT AU18-CORP-2651 295.169 2020-06-14 13:53:56.573 1170.192 01:25:42
13 RUETER FAMILY LOFT AU18-CORP-2626 295.169 2020-06-14 14:09:15.149 1131.182 01:41:01
14 RUETER FAMILY LOFT AU19-CORP-5453 295.169 2020-06-14 14:29:30.073 1083.414 02:01:16
15 RUETER FAMILY LOFT AU19-CORP-5258 295.169 2020-06-14 14:37:07.321 1066.464 02:08:53
16 RUETER FAMILY LOFT AU19-CORP-5339 295.169 2020-06-14 16:06:46.903 900.684 03:38:32
17 RUETER FAMILY LOFT AU19-CORP-5438 295.169 2020-06-14 17:55:17.891 758.062 05:27:03
18 RUETER FAMILY LOFT AU19-CORP-5293 295.169 2020-06-14 18:21:33.982 730.077 05:53:19
19 RUETER FAMILY LOFT AU19-CORP-5432 295.169 2020-06-14 19:32:15.532 664.100 07:04:01
20 RUETER FAMILY LOFT AU19-CORP-5419 295.169 2020-06-14 20:35:18.247 614.570 08:07:04
RUETER FAMILY LOFT AU19-CORP-5342 0 0000-00-00 00:00:00.000 0.000 00:00:00
RUETER FAMILY LOFT AU19-CORP-5359 0 0000-00-00 00:00:00.000 0.000 00:00:00